Time;durP1;ratioP1;P1;durP2;ratioP2;P2;SDS_P1;SDS_P2;PMS_P1;PMS_P2;Temp;Humidity;BMP_temperature;BMP_pressure;BME280_temperature;BME280_humidity;BME280_pressure;Samples;Min_cycle;Max_cycle;Signal;HPM_P1;HPM_P2
2022/04/06 00:01:52;;;;;;;33.22;10.80;;;;;;;11.80;100.00;100095.38;5047338;28;20127;-74
2022/04/06 00:04:18;;;;;;;26.25;9.48;;;;;;;11.60;100.00;100111.06;5045344;28;20051;-74
2022/04/06 00:06:45;;;;;;;18.70;7.53;;;;;;;11.65;100.00;100098.78;5044214;28;20044;-72
2022/04/06 00:09:18;;;;;;;27.27;9.43;;;;;;;11.71;100.00;100094.34;5046366;28;20759;-74
2022/04/06 00:11:45;;;;;;;18.25;7.43;;;;;;;11.68;100.00;100098.69;5045664;28;20167;-74
2022/04/06 00:14:12;;;;;;;28.50;10.23;;;;;;;11.68;100.00;100098.69;5050923;28;20489;-73
2022/04/06 00:16:39;;;;;;;12.43;4.93;;;;;;;11.74;100.00;100087.97;5049882;28;20175;-73
2022/04/06 00:19:05;;;;;;;19.88;5.68;;;;;;;11.66;100.00;100081.72;5047473;28;20045;-72
2022/04/06 00:21:32;;;;;;;28.02;8.50;;;;;;;11.69;100.00;100078.13;5045939;28;20087;-72
2022/04/06 00:23:59;;;;;;;15.48;6.22;;;;;;;11.68;100.00;100084.09;5047642;28;20127;-74
2022/04/06 00:26:25;;;;;;;23.23;11.10;;;;;;;11.54;100.00;100092.59;5050548;28;20161;-71
2022/04/06 00:28:52;;;;;;;28.63;11.77;;;;;;;11.73;100.00;100078.84;5048176;28;20051;-71
2022/04/06 00:31:18;;;;;;;29.50;8.98;;;;;;;11.62;100.00;100094.88;5052101;28;20409;-71
2022/04/06 00:33:45;;;;;;;31.73;7.10;;;;;;;11.61;100.00;100075.84;5047587;28;20158;-72
2022/04/06 00:36:12;;;;;;;8.55;3.88;;;;;;;11.60;100.00;100082.56;5046720;28;20045;-72
2022/04/06 00:38:39;;;;;;;20.85;7.80;;;;;;;11.58;100.00;100082.22;5058348;28;20098;-71
2022/04/06 00:41:05;;;;;;;22.85;7.18;;;;;;;11.60;100.00;100085.34;5061273;28;20120;-73
2022/04/06 00:43:32;;;;;;;22.33;8.05;;;;;;;11.63;100.00;100079.00;5047641;28;20157;-74
2022/04/06 00:45:58;;;;;;;23.17;8.40;;;;;;;11.54;100.00;100078.72;5048492;28;20127;-71
2022/04/06 00:48:25;;;;;;;11.90;4.60;;;;;;;11.60;100.00;100077.81;5051134;28;20045;-72
2022/04/06 00:50:51;;;;;;;29.38;9.40;;;;;;;11.47;100.00;100073.31;5056073;28;20765;-72
2022/04/06 00:53:18;;;;;;;20.17;5.47;;;;;;;11.63;100.00;100074.25;5050893;28;20041;-74
2022/04/06 00:55:45;;;;;;;16.77;5.70;;;;;;;11.66;100.00;100075.41;5057729;28;20135;-72
2022/04/06 00:58:11;;;;;;;22.65;7.75;;;;;;;11.55;100.00;100078.31;5053726;28;20049;-72
2022/04/06 01:00:38;;;;;;;23.70;10.68;;;;;;;11.66;100.00;100072.63;5049985;28;20115;-74
2022/04/06 01:03:05;;;;;;;20.55;8.55;;;;;;;11.57;100.00;100064.00;5051082;28;20044;-71
2022/04/06 01:05:31;;;;;;;16.83;6.45;;;;;;;11.58;100.00;100065.59;5051454;28;20119;-71
2022/04/06 01:08:00;;;;;;;16.38;6.00;;;;;;;11.59;100.00;100061.63;5052661;28;20054;-72
2022/04/06 01:10:28;;;;;;;16.33;5.82;;;;;;;11.56;100.00;100062.47;5049413;28;20491;-71
2022/04/06 01:12:55;;;;;;;24.25;9.73;;;;;;;11.53;100.00;100057.75;5050240;28;20132;-71
2022/04/06 01:15:24;;;;;;;23.42;8.77;;;;;;;11.68;100.00;100043.28;5053358;28;20057;-72
2022/04/06 01:17:50;;;;;;;16.92;5.38;;;;;;;11.65;100.00;100043.34;5055078;28;20382;-71
2022/04/06 01:20:17;;;;;;;20.77;7.95;;;;;;;11.71;100.00;100042.44;5057372;28;20164;-71
2022/04/06 01:22:43;;;;;;;11.07;3.53;;;;;;;11.61;100.00;100042.59;5055593;28;20044;-72
2022/04/06 01:25:10;;;;;;;25.73;10.07;;;;;;;11.46;100.00;100044.00;5062276;28;20300;-71
2022/04/06 01:27:37;;;;;;;21.55;6.70;;;;;;;11.52;100.00;100040.38;5052938;28;20459;-73
2022/04/06 01:30:04;;;;;;;23.23;8.50;;;;;;;11.66;100.00;100031.06;5053337;28;20084;-72
2022/04/06 01:32:32;;;;;;;19.67;7.05;;;;;;;11.50;100.00;100053.03;5055742;28;20151;-75
2022/04/06 01:35:00;;;;;;;19.98;7.20;;;;;;;11.52;100.00;100034.81;5058492;28;20048;-73
2022/04/06 01:37:28;;;;;;;11.75;4.10;;;;;;;11.45;100.00;100028.59;5047432;28;20136;-73
2022/04/06 01:39:55;;;;;;;26.42;9.88;;;;;;;11.44;100.00;100040.91;5057604;28;20544;-72
2022/04/06 01:42:21;;;;;;;15.48;6.10;;;;;;;11.46;100.00;100052.31;5052063;28;20056;-73
2022/04/06 01:44:49;;;;;;;23.33;7.47;;;;;;;11.56;100.00;100043.84;5058878;28;20072;-71
2022/04/06 01:47:18;;;;;;;15.40;6.30;;;;;;;11.44;100.00;100049.97;5056466;28;20067;-71
2022/04/06 01:52:32;;;;;;;16.98;5.93;;;;;;;11.37;100.00;100052.09;5055856;28;20080;-72
2022/04/06 01:55:08;;;;;;;18.55;6.60;;;;;;;11.41;100.00;100039.72;5048669;28;20071;-73
2022/04/06 01:57:35;;;;;;;16.38;4.88;;;;;;;11.43;100.00;100028.22;5053161;28;20052;-71
2022/04/06 02:00:06;;;;;;;7.65;4.15;;;;;;;11.46;100.00;100027.38;5049821;28;20710;-70
2022/04/06 02:02:32;;;;;;;23.38;7.43;;;;;;;11.33;100.00;100031.94;5058980;28;20143;-73
2022/04/06 02:04:59;;;;;;;26.00;4.63;;;;;;;11.43;100.00;100031.00;5048416;28;20067;-72
2022/04/06 02:07:27;;;;;;;14.30;5.53;;;;;;;11.41;100.00;100038.97;5051319;28;20055;-73
2022/04/06 02:09:53;;;;;;;17.38;6.90;;;;;;;11.34;100.00;100025.97;5048435;28;20049;-72
2022/04/06 02:12:22;;;;;;;15.93;5.50;;;;;;;11.34;100.00;100025.22;5048259;28;20124;-71
2022/04/06 02:14:49;;;;;;;19.77;7.57;;;;;;;11.35;100.00;100029.53;5054430;28;20080;-72
2022/04/06 02:17:16;;;;;;;19.55;7.07;;;;;;;11.35;100.00;100024.81;5049295;28;20106;-70
2022/04/06 02:19:43;;;;;;;13.32;4.30;;;;;;;11.31;100.00;100026.81;5051586;28;20055;-74
2022/04/06 02:22:10;;;;;;;13.48;4.97;;;;;;;11.32;100.00;100017.31;5048200;28;20152;-71
2022/04/06 02:24:37;;;;;;;21.90;8.38;;;;;;;11.41;100.00;100019.56;5051005;28;20052;-70
2022/04/06 02:27:08;;;;;;;25.10;6.38;;;;;;;11.38;100.00;100012.09;5051993;28;20137;-70
2022/04/06 02:29:36;;;;;;;31.95;9.75;;;;;;;11.21;100.00;100016.72;5049276;28;20102;-70
2022/04/06 02:32:04;;;;;;;26.20;8.50;;;;;;;11.24;100.00;100021.38;5045785;28;20056;-72
2022/04/06 02:34:31;;;;;;;14.43;4.93;;;;;;;11.34;100.00;100016.91;5052162;28;20070;-71
2022/04/06 02:36:57;;;;;;;21.45;6.43;;;;;;;11.39;100.00;100008.13;5050382;28;20421;-70
2022/04/06 02:39:24;;;;;;;17.10;5.78;;;;;;;11.30;100.00;100003.09;5053209;28;20295;-70
2022/04/06 02:41:51;;;;;;;25.27;7.28;;;;;;;11.32;100.00;100011.00;5061085;28;20048;-70
2022/04/06 02:44:18;;;;;;;8.70;3.58;;;;;;;11.37;100.00;100000.22;5055783;28;20506;-71
2022/04/06 02:46:47;;;;;;;14.68;5.45;;;;;;;11.36;100.00;100004.19;5049814;28;20055;-72
2022/04/06 02:49:15;;;;;;;14.30;5.38;;;;;;;11.35;100.00;100004.63;5054097;28;20531;-70
2022/04/06 02:51:42;;;;;;;12.18;5.03;;;;;;;11.28;100.00;100001.97;5047242;28;20501;-72
2022/04/06 02:54:09;;;;;;;21.30;7.75;;;;;;;11.33;100.00;100001.47;5075380;28;20075;-70
2022/04/06 02:56:36;;;;;;;6.35;2.95;;;;;;;11.33;100.00;99998.72;5053408;28;20580;-71
2022/04/06 02:59:03;;;;;;;20.63;6.45;;;;;;;11.42;100.00;99997.00;5081085;28;20834;-70
2022/04/06 03:01:29;;;;;;;9.82;3.88;;;;;;;11.30;100.00;99991.25;5046278;28;20068;-69
2022/04/06 03:03:56;;;;;;;7.43;2.92;;;;;;;11.34;100.00;100000.28;5046627;28;20114;-71
2022/04/06 03:06:23;;;;;;;13.48;4.82;;;;;;;11.27;100.00;99994.88;5051533;28;20516;-70
2022/04/06 03:08:50;;;;;;;16.23;4.72;;;;;;;11.22;100.00;99998.09;5054014;28;20080;-71
2022/04/06 03:11:16;;;;;;;23.65;7.47;;;;;;;11.09;100.00;99995.13;5054470;28;20060;-70
2022/04/06 03:13:43;;;;;;;8.23;2.85;;;;;;;11.22;100.00;99996.13;5047602;28;20057;-71
2022/04/06 03:16:10;;;;;;;17.92;5.47;;;;;;;11.08;100.00;100007.41;5049026;28;20506;-71
2022/04/06 03:18:36;;;;;;;16.90;5.95;;;;;;;11.22;100.00;99995.31;5052748;28;20056;-70
2022/04/06 03:21:03;;;;;;;8.38;3.17;;;;;;;11.23;100.00;99988.56;5053396;28;20108;-70
2022/04/06 03:23:30;;;;;;;6.97;2.80;;;;;;;11.29;100.00;99997.97;5040784;28;20056;-70
2022/04/06 03:25:56;;;;;;;13.38;3.72;;;;;;;11.24;100.00;99992.94;5047602;28;20053;-70
2022/04/06 03:28:23;;;;;;;8.50;3.03;;;;;;;11.22;100.00;99987.00;5054705;28;20074;-70
2022/04/06 03:30:49;;;;;;;19.13;5.82;;;;;;;11.34;100.00;99983.69;5050861;28;20041;-70
2022/04/06 03:33:16;;;;;;;16.13;4.90;;;;;;;11.18;100.00;99989.06;5055007;28;20136;-69
2022/04/06 03:35:42;;;;;;;16.92;5.53;;;;;;;11.13;100.00;99973.69;5057585;28;20088;-69
2022/04/06 03:38:09;;;;;;;24.25;5.97;;;;;;;11.13;100.00;99972.94;5048024;28;20068;-70
2022/04/06 03:40:38;;;;;;;13.25;4.05;;;;;;;11.22;100.00;99985.03;5060690;28;20140;-69
2022/04/06 03:43:08;;;;;;;12.63;3.88;;;;;;;11.31;100.00;99984.50;5054273;28;20080;-71
2022/04/06 03:45:35;;;;;;;13.55;5.40;;;;;;;11.26;100.00;99983.00;5054728;28;20061;-71
2022/04/06 03:48:01;;;;;;;9.98;4.05;;;;;;;11.22;100.00;99975.94;5047649;28;20077;-70
2022/04/06 03:50:28;;;;;;;7.60;3.30;;;;;;;11.17;100.00;99966.13;5053484;28;20091;-70
2022/04/06 03:52:54;;;;;;;16.88;4.22;;;;;;;11.12;100.00;99980.44;5048236;28;20090;-70
2022/04/06 03:55:22;;;;;;;12.25;4.60;;;;;;;11.26;100.00;99977.47;5041522;28;20052;-71
2022/04/06 03:57:49;;;;;;;6.63;2.38;;;;;;;11.23;100.00;99966.41;5048090;28;20076;-70
2022/04/06 04:00:16;;;;;;;9.43;3.58;;;;;;;11.15;100.00;99976.06;5053714;28;20140;-71
2022/04/06 04:02:42;;;;;;;9.00;3.00;;;;;;;11.18;100.00;99970.47;5047293;28;20135;-70
2022/04/06 04:05:09;;;;;;;13.70;3.75;;;;;;;11.13;100.00;99970.16;5050210;28;20429;-72
2022/04/06 04:07:37;;;;;;;11.52;3.65;;;;;;;11.13;100.00;99972.94;5054123;28;20053;-71
2022/04/06 04:10:11;;;;;;;15.65;4.57;;;;;;;11.21;100.00;99963.31;5054063;28;20409;-71
2022/04/06 04:12:41;;;;;;;15.50;4.50;;;;;;;11.13;100.00;99959.09;5046341;28;20052;-71
2022/04/06 04:15:08;;;;;;;17.73;4.40;;;;;;;11.15;100.00;99960.22;5047308;28;20433;-70
2022/04/06 04:17:35;;;;;;;14.43;4.30;;;;;;;11.06;100.00;99957.19;5046869;28;20131;-71
2022/04/06 04:20:02;;;;;;;10.23;4.05;;;;;;;11.09;100.00;99961.09;5051674;28;20078;-71
2022/04/06 04:22:30;;;;;;;11.00;3.35;;;;;;;11.09;100.00;99961.09;5050708;28;20732;-71
2022/04/06 04:24:56;;;;;;;11.73;3.85;;;;;;;11.06;100.00;99962.72;5051691;28;20076;-71
2022/04/06 04:27:23;;;;;;;20.77;4.35;;;;;;;11.05;100.00;99955.63;5058560;28;20429;-70
2022/04/06 04:29:50;;;;;;;15.98;5.15;;;;;;;11.04;100.00;99956.84;5052571;28;20694;-70
2022/04/06 04:32:16;;;;;;;7.55;2.85;;;;;;;11.04;100.00;99961.59;5051491;28;20053;-70
2022/04/06 04:34:43;;;;;;;17.95;6.03;;;;;;;11.01;100.00;99966.00;5062844;28;20123;-71
2022/04/06 04:37:10;;;;;;;10.32;4.32;;;;;;;11.15;100.00;99942.81;5055824;28;20069;-70
2022/04/06 04:39:36;;;;;;;9.55;3.28;;;;;;;11.03;100.00;99966.34;5053822;28;20080;-70
2022/04/06 04:42:04;;;;;;;14.40;4.78;;;;;;;11.02;100.00;99964.78;5057877;28;21455;-71
2022/04/06 04:44:31;;;;;;;7.40;2.55;;;;;;;11.05;100.00;99963.94;5060290;28;20171;-71
2022/04/06 04:46:57;;;;;;;11.55;4.30;;;;;;;11.00;100.00;99958.09;5049811;28;20059;-70
2022/04/06 04:49:24;;;;;;;19.45;5.50;;;;;;;10.97;100.00;99951.38;5058899;28;20106;-69
2022/04/06 04:51:51;;;;;;;9.73;3.03;;;;;;;10.94;100.00;99957.78;5049902;28;20145;-71
2022/04/06 04:54:17;;;;;;;16.77;4.60;;;;;;;10.93;100.00;99953.44;5051922;28;20052;-70
2022/04/06 04:56:44;;;;;;;10.20;3.30;;;;;;;10.91;100.00;99949.53;5051220;28;20044;-70
2022/04/06 04:59:10;;;;;;;9.73;3.83;;;;;;;10.92;100.00;99948.31;5059208;28;20420;-70
2022/04/06 05:01:37;;;;;;;9.25;2.75;;;;;;;10.86;100.00;99944.47;5050773;28;20056;-70
2022/04/06 05:04:04;;;;;;;12.88;4.70;;;;;;;10.85;100.00;99943.69;5052005;28;20398;-70
2022/04/06 05:06:31;;;;;;;8.45;3.63;;;;;;;10.90;100.00;99937.66;5053423;28;20088;-70
2022/04/06 05:08:57;;;;;;;8.98;3.58;;;;;;;10.86;100.00;99938.94;5054865;28;20135;-70
2022/04/06 05:11:24;;;;;;;16.17;4.05;;;;;;;10.90;100.00;99931.38;5054707;28;20052;-70
2022/04/06 05:13:51;;;;;;;20.77;6.82;;;;;;;10.74;100.00;99956.88;5049299;28;20072;-71
2022/04/06 05:16:17;;;;;;;8.52;2.72;;;;;;;10.96;100.00;99943.50;5060105;28;20091;-71
2022/04/06 05:18:44;;;;;;;6.05;2.60;;;;;;;10.93;100.00;99936.06;5055539;28;20800;-69
2022/04/06 05:21:11;;;;;;;10.18;3.80;;;;;;;10.82;100.00;99946.47;5051836;28;20130;-69
2022/04/06 05:23:38;;;;;;;3.58;2.50;;;;;;;10.89;100.00;99938.88;5049568;28;20056;-70
2022/04/06 05:26:04;;;;;;;6.85;2.83;;;;;;;10.83;100.00;99937.75;5051452;28;20175;-69
2022/04/06 05:28:31;;;;;;;16.77;4.35;;;;;;;10.85;100.00;99932.59;5050290;28;20053;-69
2022/04/06 05:30:57;;;;;;;13.07;3.15;;;;;;;10.93;100.00;99947.13;5050614;28;20519;-72
2022/04/06 05:33:24;;;;;;;6.20;2.72;;;;;;;10.90;100.00;99942.44;5053432;28;20061;-71
2022/04/06 05:35:51;;;;;;;8.95;2.85;;;;;;;10.92;100.00;99951.88;5055443;28;20143;-70
2022/04/06 05:38:18;;;;;;;13.90;4.18;;;;;;;10.91;100.00;99944.78;5047875;28;20051;-70
2022/04/06 05:40:45;;;;;;;21.30;5.45;;;;;;;10.97;100.00;99943.09;5048291;28;20664;-69
2022/04/06 05:43:11;;;;;;;9.65;2.17;;;;;;;10.90;100.00;99956.28;5054531;28;20110;-69
2022/04/06 05:45:38;;;;;;;13.75;4.25;;;;;;;10.89;100.00;99941.63;5057938;28;20138;-68
2022/04/06 05:48:05;;;;;;;8.98;3.35;;;;;;;10.89;100.00;99946.38;5048920;28;20049;-69
2022/04/06 05:50:32;;;;;;;9.90;3.70;;;;;;;10.97;100.00;99942.31;5052720;28;20106;-69
2022/04/06 05:52:59;;;;;;;10.75;2.50;;;;;;;10.86;100.00;99948.00;5055201;28;20056;-71
2022/04/06 05:55:25;;;;;;;14.23;4.13;;;;;;;10.96;100.00;99951.81;5052597;28;20512;-71
2022/04/06 05:57:52;;;;;;;21.38;3.65;;;;;;;11.07;100.00;99946.91;5054409;28;20606;-68
2022/04/06 06:00:19;;;;;;;9.98;3.13;;;;;;;10.91;100.00;99944.00;5049824;28;20136;-69
2022/04/06 06:02:45;;;;;;;17.40;4.05;;;;;;;10.98;100.00;99947.44;5050080;28;20416;-70
2022/04/06 06:05:12;;;;;;;13.20;3.00;;;;;;;11.13;100.00;99940.47;5057913;28;20049;-70
2022/04/06 06:07:38;;;;;;;12.27;3.88;;;;;;;11.15;100.00;99937.28;5055621;28;20131;-68
2022/04/06 06:10:05;;;;;;;12.35;4.40;;;;;;;11.16;100.00;99936.06;5048122;28;20048;-70
2022/04/06 06:12:32;;;;;;;7.53;2.80;;;;;;;11.09;100.00;99936.97;5048717;28;20173;-69
2022/04/06 06:15:00;;;;;;;15.10;4.10;;;;;;;11.03;100.00;99926.81;5048788;28;20048;-70
2022/04/06 06:17:26;;;;;;;14.57;4.18;;;;;;;11.26;100.00;99932.34;5047085;28;20083;-71
2022/04/06 06:19:53;;;;;;;10.05;3.53;;;;;;;11.18;100.00;99931.72;5049904;28;20136;-70
2022/04/06 06:22:19;;;;;;;12.48;4.25;;;;;;;11.26;100.00;99935.13;5048013;28;20041;-71
2022/04/06 06:24:46;;;;;;;12.93;3.95;;;;;;;11.16;100.00;99939.66;5048695;28;20455;-72
2022/04/06 06:27:17;;;;;;;15.38;4.45;;;;;;;11.18;100.00;99937.25;5050406;28;20131;-70
2022/04/06 06:29:44;;;;;;;15.48;4.95;;;;;;;11.23;100.00;99938.72;5050980;28;20072;-70
2022/04/06 06:32:11;;;;;;;9.05;2.88;;;;;;;11.31;100.00;99934.66;5045600;28;20057;-70
2022/04/06 06:34:37;;;;;;;5.97;2.72;;;;;;;11.40;100.00;99918.28;5051219;28;20599;-70
2022/04/06 06:37:03;;;;;;;13.68;5.00;;;;;;;11.41;100.00;99922.63;5049507;28;20045;-71
2022/04/06 06:39:30;;;;;;;7.90;2.65;;;;;;;11.25;100.00;99926.06;5050085;28;20053;-70
2022/04/06 06:41:56;;;;;;;6.82;2.03;;;;;;;11.23;100.00;99906.28;5048491;28;20156;-71
2022/04/06 06:44:23;;;;;;;7.95;2.60;;;;;;;11.20;100.00;99914.69;5056611;28;20131;-70
2022/04/06 06:46:50;;;;;;;13.15;3.17;;;;;;;11.23;100.00;99911.84;5052394;28;20088;-71
2022/04/06 06:49:16;;;;;;;8.82;2.85;;;;;;;11.26;100.00;99904.66;5049810;28;20053;-71
2022/04/06 06:51:43;;;;;;;11.32;3.58;;;;;;;11.27;100.00;99911.78;5046855;28;20053;-70
2022/04/06 06:54:10;;;;;;;10.35;4.03;;;;;;;11.26;99.83;99896.34;5050079;28;20048;-71
2022/04/06 06:56:36;;;;;;;9.88;2.95;;;;;;;11.37;99.79;99908.06;5048282;28;20057;-70
2022/04/06 06:59:03;;;;;;;11.52;2.78;;;;;;;11.40;96.88;99904.44;5049989;28;20127;-70
2022/04/06 07:01:29;;;;;;;12.23;3.67;;;;;;;11.40;95.90;99913.53;5046134;28;20044;-71
2022/04/06 07:03:56;;;;;;;10.45;2.40;;;;;;;11.53;95.27;99905.38;5049330;28;20098;-71
2022/04/06 07:06:23;;;;;;;4.30;1.88;;;;;;;11.57;94.79;99904.13;5049429;28;20106;-71
2022/04/06 07:08:49;;;;;;;8.38;2.80;;;;;;;11.49;95.37;99918.53;5054080;28;20051;-70
2022/04/06 07:11:16;;;;;;;14.60;3.65;;;;;;;11.47;96.13;99916.16;5046790;28;20467;-74
2022/04/06 07:13:42;;;;;;;5.80;2.17;;;;;;;11.67;96.22;99896.84;5040902;28;20049;-74
2022/04/06 07:16:10;;;;;;;9.07;2.03;;;;;;;11.66;95.75;99898.84;5048845;28;20128;-72
2022/04/06 07:18:37;;;;;;;12.35;3.15;;;;;;;11.84;96.79;99890.97;5049124;28;20782;-72
2022/04/06 07:21:04;;;;;;;10.13;2.28;;;;;;;11.67;96.84;99905.16;5046951;28;20057;-72
2022/04/06 07:23:30;;;;;;;8.93;2.67;;;;;;;11.62;98.04;99902.88;5048309;28;20128;-72
2022/04/06 07:25:57;;;;;;;7.90;2.53;;;;;;;11.61;99.23;99901.31;5043027;28;20049;-73
2022/04/06 07:28:23;;;;;;;11.77;3.67;;;;;;;11.47;100.00;99894.00;5046762;28;20053;-72
2022/04/06 07:30:50;;;;;;;12.15;4.75;;;;;;;11.39;100.00;99897.31;5048329;28;20493;-73
2022/04/06 07:33:17;;;;;;;9.07;3.20;;;;;;;11.64;100.00;99892.94;5040095;28;20132;-71
2022/04/06 07:35:43;;;;;;;11.85;4.13;;;;;;;11.24;100.00;99890.47;5047719;28;20152;-72
2022/04/06 07:38:12;;;;;;;8.02;2.92;;;;;;;11.22;100.00;99917.78;5042418;28;20043;-72
2022/04/06 07:40:40;;;;;;;10.77;3.85;;;;;;;11.21;100.00;99885.78;5044631;28;20417;-71
2022/04/06 07:43:08;;;;;;;13.32;5.10;;;;;;;11.03;100.00;99908.22;5056265;28;20052;-71
2022/04/06 07:45:34;;;;;;;10.00;3.08;;;;;;;11.07;100.00;99895.09;5051270;28;20155;-71
2022/04/06 07:48:03;;;;;;;8.45;3.33;;;;;;;11.18;100.00;99883.84;5039113;28;20053;-73
2022/04/06 07:50:31;;;;;;;20.92;5.25;;;;;;;11.24;100.00;99896.78;5048185;28;20076;-71
2022/04/06 07:52:58;;;;;;;10.38;3.53;;;;;;;11.11;100.00;99882.00;5047163;28;20076;-73
2022/04/06 07:55:24;;;;;;;17.23;5.18;;;;;;;11.04;100.00;99864.72;5045901;28;20052;-72
2022/04/06 07:57:51;;;;;;;15.30;4.63;;;;;;;11.12;100.00;99877.22;5058854;28;20143;-73
2022/04/06 08:00:18;;;;;;;2.95;2.05;;;;;;;11.28;100.00;99880.13;5043749;28;20652;-72
2022/04/06 08:02:48;;;;;;;8.77;3.75;;;;;;;11.08;100.00;99876.50;5046786;28;20532;-73
2022/04/06 08:05:16;;;;;;;10.40;4.20;;;;;;;11.10;100.00;99877.63;5040607;28;20144;-73
2022/04/06 08:07:44;;;;;;;13.13;4.10;;;;;;;11.16;100.00;99883.47;5052852;28;20052;-72
2022/04/06 08:10:15;;;;;;;14.60;3.33;;;;;;;11.27;100.00;99890.41;5045081;28;20048;-71
2022/04/06 08:12:42;;;;;;;8.40;3.75;;;;;;;11.23;100.00;99883.34;5045397;28;20048;-72
2022/04/06 08:15:10;;;;;;;7.95;3.10;;;;;;;11.29;100.00;99887.22;5047795;28;20107;-73
2022/04/06 08:17:38;;;;;;;13.98;4.82;;;;;;;11.22;100.00;99892.88;5046263;28;20052;-72
2022/04/06 08:20:08;;;;;;;9.70;4.00;;;;;;;11.19;100.00;99891.75;5047408;28;20124;-73
2022/04/06 08:22:35;;;;;;;8.88;2.72;;;;;;;11.29;100.00;99876.13;5047422;28;20095;-73
2022/04/06 08:25:02;;;;;;;8.25;3.22;;;;;;;11.28;100.00;99883.69;5047521;28;20095;-71
2022/04/06 08:27:49;;;;;;;10.15;3.90;;;;;;;11.15;100.00;99890.22;5047653;28;20507;-72
2022/04/06 08:30:20;;;;;;;9.73;3.45;;;;;;;11.23;100.00;99875.84;5048358;28;20128;-72
2022/04/06 08:32:47;;;;;;;11.38;3.10;;;;;;;11.27;100.00;99878.56;5044212;28;20048;-74
2022/04/06 08:35:13;;;;;;;14.23;4.03;;;;;;;11.25;100.00;99887.28;5046337;28;20053;-71
2022/04/06 08:37:40;;;;;;;4.35;2.60;;;;;;;11.41;100.00;99884.63;5045526;28;20106;-71
2022/04/06 08:40:09;;;;;;;10.15;3.40;;;;;;;11.39;100.00;99875.16;5047741;28;20045;-73
2022/04/06 08:42:36;;;;;;;7.28;2.72;;;;;;;11.39;100.00;99862.13;5048381;28;20417;-72
2022/04/06 08:45:05;;;;;;;15.18;6.65;;;;;;;11.05;100.00;99875.38;5058163;28;20052;-74
2022/04/06 08:47:32;;;;;;;14.65;4.40;;;;;;;11.27;100.00;99862.72;5047939;28;20071;-71
2022/04/06 08:50:05;;;;;;;13.40;3.65;;;;;;;11.15;100.00;99893.00;5058378;28;20110;-71
2022/04/06 08:52:33;;;;;;;14.07;4.90;;;;;;;11.18;100.00;99873.56;5046306;28;20128;-71
2022/04/06 08:55:19;;;;;;;13.45;5.55;;;;;;;11.24;100.00;99862.78;5045840;28;20055;-72
2022/04/06 08:57:46;;;;;;;6.22;3.10;;;;;;;11.05;100.00;99871.81;5049215;28;20056;-72
2022/04/06 09:00:15;;;;;;;10.55;4.63;;;;;;;11.03;100.00;99861.16;5038356;28;20475;-71
2022/04/06 09:02:42;;;;;;;4.90;2.78;;;;;;;11.28;100.00;99864.31;5047151;28;20049;-72
2022/04/06 09:05:12;;;;;;;11.35;4.05;;;;;;;11.26;100.00;99866.69;5046353;28;20883;-71
2022/04/06 09:07:40;;;;;;;10.88;4.18;;;;;;;11.30;100.00;99869.41;5051206;28;20094;-71
2022/04/06 09:10:08;;;;;;;9.52;4.20;;;;;;;11.31;100.00;99863.44;5034802;28;20092;-72
2022/04/06 09:12:35;;;;;;;10.10;4.07;;;;;;;11.41;100.00;99864.47;5040744;28;20075;-71
2022/04/06 09:15:04;;;;;;;17.17;5.55;;;;;;;11.34;100.00;99867.34;5047800;28;20081;-70
2022/04/06 09:17:43;;;;;;;5.72;3.03;;;;;;;11.52;100.00;99870.59;5045953;28;20639;-71
2022/04/06 09:20:10;;;;;;;10.48;4.45;;;;;;;11.40;100.00;99860.09;5047744;28;20065;-72
2022/04/06 09:22:44;;;;;;;10.68;4.70;;;;;;;11.49;100.00;99871.44;5046327;28;20053;-73
2022/04/06 09:25:11;;;;;;;3.75;1.92;;;;;;;11.61;100.00;99866.06;5047032;28;20457;-72
2022/04/06 09:27:40;;;;;;;8.93;4.43;;;;;;;11.47;100.00;99855.22;5041043;28;20160;-72
2022/04/06 09:30:08;;;;;;;13.57;3.85;;;;;;;11.65;100.00;99843.84;5035497;28;20053;-72
2022/04/06 09:32:34;;;;;;;17.75;4.82;;;;;;;11.59;100.00;99853.81;5046569;28;20551;-72
2022/04/06 09:35:21;;;;;;;11.18;3.47;;;;;;;11.51;99.62;99850.41;5050673;28;20136;-74
2022/04/06 09:37:47;;;;;;;9.27;3.45;;;;;;;11.58;98.68;99861.34;5045633;28;20477;-72
2022/04/06 09:40:14;;;;;;;3.45;2.00;;;;;;;11.62;98.24;99872.41;5047315;28;20152;-71
2022/04/06 09:42:50;;;;;;;12.07;3.55;;;;;;;11.51;98.16;99860.72;5051020;28;20076;-73
2022/04/06 09:48:12;;;;;;;;;;;;;;;11.62;96.98;99847.47;5050674;28;20325;-71
2022/04/06 09:50:42;;;;;;;8.75;2.80;;;;;;;11.69;96.55;99858.41;5038862;28;19929;-72
2022/04/06 09:53:09;;;;;;;4.55;1.52;;;;;;;11.71;95.93;99861.56;5047942;28;20041;-72
2022/04/06 09:55:37;;;;;;;10.95;3.35;;;;;;;11.86;96.40;99851.75;5047545;28;20048;-72
2022/04/06 09:58:05;;;;;;;9.23;3.03;;;;;;;11.54;95.81;99866.19;5055119;28;20052;-71
2022/04/06 10:00:34;;;;;;;9.57;2.75;;;;;;;11.65;95.74;99855.69;5049185;28;20064;-71
2022/04/06 10:03:09;;;;;;;8.80;3.50;;;;;;;11.51;96.40;99858.72;5048227;28;20056;-72
2022/04/06 10:05:38;;;;;;;8.20;3.35;;;;;;;11.66;95.72;99843.44;5043240;28;20083;-73
2022/04/06 10:08:07;;;;;;;12.85;4.28;;;;;;;11.56;95.53;99852.69;5049646;28;20132;-71
2022/04/06 10:10:35;;;;;;;8.95;3.70;;;;;;;11.54;96.06;99834.94;5048211;28;20226;-72
2022/04/06 10:13:07;;;;;;;9.52;3.75;;;;;;;11.57;96.53;99853.47;5045761;28;20088;-73
2022/04/06 10:15:54;;;;;;;9.57;2.67;;;;;;;11.66;96.66;99873.91;5047975;28;20056;-72
2022/04/06 10:18:21;;;;;;;10.85;4.00;;;;;;;11.65;95.74;99871.56;5048146;28;20087;-73
2022/04/06 10:21:00;;;;;;;8.93;3.83;;;;;;;11.62;95.28;99845.50;5041015;28;20404;-72
2022/04/06 10:24:12;;;;;;;11.75;3.35;;;;;;;11.71;95.65;99840.16;5043364;28;20048;-72
2022/04/06 10:26:59;;;;;;;4.65;2.08;;;;;;;11.92;95.08;99838.97;5023351;28;20056;-72
2022/04/06 10:29:26;;;;;;;4.75;1.83;;;;;;;11.82;95.49;99843.53;5050156;28;20049;-71
2022/04/06 10:31:52;;;;;;;10.15;2.83;;;;;;;11.89;94.77;99826.75;5046265;28;20133;-73
2022/04/06 10:34:33;;;;;;;9.77;3.25;;;;;;;11.86;94.39;99827.59;5049755;28;20049;-72
2022/04/06 10:37:11;;;;;;;10.93;2.97;;;;;;;11.91;93.86;99840.94;5048428;28;20135;-72
2022/04/06 10:39:50;;;;;;;11.52;3.75;;;;;;;11.87;93.49;99823.59;5053469;28;20094;-72
2022/04/06 10:42:28;;;;;;;6.38;2.25;;;;;;;12.02;93.49;99819.31;5051440;28;20061;-71
2022/04/06 10:44:55;;;;;;;14.00;3.47;;;;;;;11.94;93.49;99822.66;5066129;28;20103;-73
2022/04/06 10:47:23;;;;;;;12.27;3.10;;;;;;;11.93;93.84;99834.97;5049772;28;20139;-72
2022/04/06 10:50:08;;;;;;;7.57;2.50;;;;;;;12.02;94.24;99808.22;5049056;28;20057;-72
2022/04/06 10:52:35;;;;;;;7.95;2.97;;;;;;;12.00;94.08;99820.97;5046590;28;20547;-72
2022/04/06 10:55:14;;;;;;;12.10;1.88;;;;;;;12.22;94.46;99817.28;5049797;28;20145;-72
2022/04/06 10:58:01;;;;;;;14.00;4.15;;;;;;;12.15;94.43;99814.69;5049457;28;20053;-73
2022/04/06 11:00:29;;;;;;;4.93;2.13;;;;;;;12.19;93.44;99812.59;5046388;28;20049;-71
2022/04/06 11:03:13;;;;;;;9.43;3.72;;;;;;;12.00;93.80;99812.66;5048089;28;20513;-73
2022/04/06 11:05:40;;;;;;;5.55;2.55;;;;;;;12.11;95.06;99811.22;5040921;28;20059;-72
2022/04/06 11:11:30;;;;;;;3.35;1.83;;;;;;;12.06;96.35;99831.13;5045127;28;20527;-73
2022/04/06 11:13:57;;;;;;;7.22;3.38;;;;;;;11.87;99.08;99829.16;5055834;28;20055;-72
2022/04/06 11:16:44;;;;;;;10.98;3.65;;;;;;;11.68;100.00;99821.59;5047926;28;20048;-72
2022/04/06 11:19:12;;;;;;;9.73;3.30;;;;;;;11.66;100.00;99812.16;5047842;28;20040;-73
2022/04/06 11:21:56;;;;;;;5.72;2.60;;;;;;;11.75;100.00;99829.00;5047236;28;20626;-72
2022/04/06 11:24:25;;;;;;;12.45;4.15;;;;;;;11.95;100.00;99811.16;5049324;28;20048;-72
2022/04/06 11:26:51;;;;;;;3.95;1.98;;;;;;;11.94;100.00;99812.38;5043969;28;20118;-74
2022/04/06 11:29:18;;;;;;;6.82;2.85;;;;;;;11.79;100.00;99826.94;5047524;28;20331;-73
2022/04/06 11:31:59;;;;;;;7.78;3.22;;;;;;;11.67;100.00;99808.97;5047632;28;20131;-72
2022/04/06 11:34:31;;;;;;;10.75;3.63;;;;;;;11.75;100.00;99804.06;5047559;28;20080;-73